sensor_id;sensor_type;location;lat;lon;timestamp;pressure;altitude;pressure_sealevel;temperature;humidity
9721;BME280;4899;42.644;23.366;2023-05-20T00:00:03;94578.78;;;11.27;100.00
9721;BME280;4899;42.644;23.366;2023-05-20T00:02:29;94573.78;;;11.22;100.00
9721;BME280;4899;42.644;23.366;2023-05-20T00:04:55;94576.22;;;11.27;100.00
9721;BME280;4899;42.644;23.366;2023-05-20T00:07:20;94577.44;;;11.30;100.00
9721;BME280;4899;42.644;23.366;2023-05-20T00:09:46;94574.41;;;11.28;100.00
9721;BME280;4899;42.644;23.366;2023-05-20T00:12:11;94556.81;;;11.21;100.00
9721;BME280;4899;42.644;23.366;2023-05-20T00:14:36;94574.84;;;11.30;100.00
9721;BME280;4899;42.644;23.366;2023-05-20T00:17:02;94567.28;;;11.25;100.00
9721;BME280;4899;42.644;23.366;2023-05-20T00:19:28;94557.84;;;11.12;100.00
9721;BME280;4899;42.644;23.366;2023-05-20T00:21:54;94575.00;;;11.16;100.00
9721;BME280;4899;42.644;23.366;2023-05-20T00:24:22;94567.41;;;11.11;100.00
9721;BME280;4899;42.644;23.366;2023-05-20T00:26:47;94568.16;;;11.12;100.00
9721;BME280;4899;42.644;23.366;2023-05-20T00:29:13;94577.72;;;11.20;100.00
9721;BME280;4899;42.644;23.366;2023-05-20T00:31:38;94567.28;;;11.16;100.00
9721;BME280;4899;42.644;23.366;2023-05-20T00:34:04;94570.75;;;11.20;100.00
9721;BME280;4899;42.644;23.366;2023-05-20T00:36:29;94549.38;;;11.11;100.00
9721;BME280;4899;42.644;23.366;2023-05-20T00:38:55;94566.38;;;11.21;100.00
9721;BME280;4899;42.644;23.366;2023-05-20T00:41:20;94562.88;;;11.17;100.00
9721;BME280;4899;42.644;23.366;2023-05-20T00:43:46;94555.75;;;11.14;100.00
9721;BME280;4899;42.644;23.366;2023-05-20T00:46:11;94546.19;;;11.14;100.00
9721;BME280;4899;42.644;23.366;2023-05-20T00:48:42;94552.44;;;11.22;100.00
9721;BME280;4899;42.644;23.366;2023-05-20T00:51:10;94548.19;;;11.26;100.00
9721;BME280;4899;42.644;23.366;2023-05-20T00:53:37;94547.44;;;11.25;100.00
9721;BME280;4899;42.644;23.366;2023-05-20T00:56:03;94543.81;;;11.26;100.00
9721;BME280;4899;42.644;23.366;2023-05-20T00:58:29;94533.50;;;11.26;100.00
9721;BME280;4899;42.644;23.366;2023-05-20T01:00:55;94525.47;;;11.19;100.00
9721;BME280;4899;42.644;23.366;2023-05-20T01:03:20;94532.75;;;11.26;100.00
9721;BME280;4899;42.644;23.366;2023-05-20T01:05:46;94539.28;;;11.40;100.00
9721;BME280;4899;42.644;23.366;2023-05-20T01:08:12;94540.47;;;11.43;100.00
9721;BME280;4899;42.644;23.366;2023-05-20T01:10:41;94539.09;;;11.37;100.00
9721;BME280;4899;42.644;23.366;2023-05-20T01:13:10;94549.72;;;11.44;100.00
9721;BME280;4899;42.644;23.366;2023-05-20T01:15:41;94538.34;;;11.36;100.00
9721;BME280;4899;42.644;23.366;2023-05-20T01:18:08;94523.66;;;11.28;100.00
9721;BME280;4899;42.644;23.366;2023-05-20T01:20:35;94560.19;;;11.48;100.00
9721;BME280;4899;42.644;23.366;2023-05-20T01:23:02;94559.56;;;11.42;100.00
9721;BME280;4899;42.644;23.366;2023-05-20T01:25:28;94554.97;;;11.13;100.00
9721;BME280;4899;42.644;23.366;2023-05-20T01:27:55;94554.22;;;10.95;100.00
9721;BME280;4899;42.644;23.366;2023-05-20T01:30:22;94556.50;;;10.97;100.00
9721;BME280;4899;42.644;23.366;2023-05-20T01:33:01;94548.00;;;11.05;100.00
9721;BME280;4899;42.644;23.366;2023-05-20T01:35:29;94552.84;;;11.15;100.00
9721;BME280;4899;42.644;23.366;2023-05-20T01:37:56;94541.81;;;11.15;100.00
9721;BME280;4899;42.644;23.366;2023-05-20T01:40:23;94558.34;;;11.22;100.00
9721;BME280;4899;42.644;23.366;2023-05-20T01:42:50;94564.41;;;11.26;100.00
9721;BME280;4899;42.644;23.366;2023-05-20T01:45:18;94556.22;;;11.24;100.00
9721;BME280;4899;42.644;23.366;2023-05-20T01:47:47;94535.31;;;11.17;100.00
9721;BME280;4899;42.644;23.366;2023-05-20T01:50:14;94550.63;;;11.22;100.00
9721;BME280;4899;42.644;23.366;2023-05-20T01:52:39;94553.19;;;11.22;100.00
9721;BME280;4899;42.644;23.366;2023-05-20T01:55:05;94546.38;;;11.18;100.00
9721;BME280;4899;42.644;23.366;2023-05-20T01:57:30;94543.94;;;11.21;100.00
9721;BME280;4899;42.644;23.366;2023-05-20T01:59:56;94536.53;;;11.20;100.00
9721;BME280;4899;42.644;23.366;2023-05-20T02:02:21;94538.66;;;11.18;100.00
9721;BME280;4899;42.644;23.366;2023-05-20T02:04:49;94542.59;;;11.24;100.00
9721;BME280;4899;42.644;23.366;2023-05-20T02:07:15;94539.88;;;11.20;100.00
9721;BME280;4899;42.644;23.366;2023-05-20T02:09:40;94533.97;;;11.20;100.00
9721;BME280;4899;42.644;23.366;2023-05-20T02:12:07;94530.31;;;11.12;100.00
9721;BME280;4899;42.644;23.366;2023-05-20T02:14:33;94532.88;;;11.12;100.00
9721;BME280;4899;42.644;23.366;2023-05-20T02:16:58;94526.34;;;11.06;100.00
9721;BME280;4899;42.644;23.366;2023-05-20T02:19:24;94535.28;;;11.00;100.00
9721;BME280;4899;42.644;23.366;2023-05-20T02:21:50;94534.53;;;10.99;100.00
9721;BME280;4899;42.644;23.366;2023-05-20T02:24:16;94536.34;;;10.99;100.00
9721;BME280;4899;42.644;23.366;2023-05-20T02:26:41;94531.34;;;10.94;100.00
9721;BME280;4899;42.644;23.366;2023-05-20T02:29:08;94536.31;;;10.90;100.00
9721;BME280;4899;42.644;23.366;2023-05-20T02:31:34;94526.31;;;10.89;100.00
9721;BME280;4899;42.644;23.366;2023-05-20T02:34:01;94530.41;;;10.90;100.00
9721;BME280;4899;42.644;23.366;2023-05-20T02:36:28;94520.72;;;10.87;100.00
9721;BME280;4899;42.644;23.366;2023-05-20T02:38:54;94516.19;;;10.84;100.00
9721;BME280;4899;42.644;23.366;2023-05-20T02:41:21;94524.66;;;10.84;100.00
9721;BME280;4899;42.644;23.366;2023-05-20T02:43:47;94525.41;;;10.85;100.00
9721;BME280;4899;42.644;23.366;2023-05-20T02:46:12;94529.81;;;10.84;100.00
9721;BME280;4899;42.644;23.366;2023-05-20T02:48:37;94531.16;;;10.82;100.00
9721;BME280;4899;42.644;23.366;2023-05-20T02:51:04;94524.06;;;10.78;100.00
9721;BME280;4899;42.644;23.366;2023-05-20T02:53:29;94521.19;;;10.80;100.00
9721;BME280;4899;42.644;23.366;2023-05-20T02:55:56;94516.31;;;10.78;100.00
9721;BME280;4899;42.644;23.366;2023-05-20T02:58:21;94517.84;;;10.79;100.00
9721;BME280;4899;42.644;23.366;2023-05-20T03:00:51;94520.13;;;10.81;100.00
9721;BME280;4899;42.644;23.366;2023-05-20T03:03:17;94523.91;;;10.84;100.00
9721;BME280;4899;42.644;23.366;2023-05-20T03:05:42;94524.19;;;10.82;100.00
9721;BME280;4899;42.644;23.366;2023-05-20T03:08:10;94529.97;;;10.88;100.00
9721;BME280;4899;42.644;23.366;2023-05-20T03:10:36;94534.81;;;10.89;100.00
9721;BME280;4899;42.644;23.366;2023-05-20T03:13:06;94539.38;;;10.92;100.00
9721;BME280;4899;42.644;23.366;2023-05-20T03:15:33;94543.78;;;10.92;100.00
9721;BME280;4899;42.644;23.366;2023-05-20T03:18:00;94532.72;;;10.91;100.00
9721;BME280;4899;42.644;23.366;2023-05-20T03:20:25;94544.38;;;10.97;100.00
9721;BME280;4899;42.644;23.366;2023-05-20T03:22:53;94527.56;;;10.91;100.00
9721;BME280;4899;42.644;23.366;2023-05-20T03:25:19;94541.03;;;10.97;100.00
9721;BME280;4899;42.644;23.366;2023-05-20T03:27:45;94545.44;;;10.96;100.00
9721;BME280;4899;42.644;23.366;2023-05-20T03:30:11;94543.72;;;10.83;100.00
9721;BME280;4899;42.644;23.366;2023-05-20T03:32:36;94550.84;;;10.77;100.00
9721;BME280;4899;42.644;23.366;2023-05-20T03:35:02;94541.88;;;10.66;100.00
9721;BME280;4899;42.644;23.366;2023-05-20T03:37:27;94553.69;;;10.67;100.00
9721;BME280;4899;42.644;23.366;2023-05-20T03:39:53;94553.50;;;10.64;100.00
9721;BME280;4899;42.644;23.366;2023-05-20T03:42:18;94566.72;;;10.71;100.00
9721;BME280;4899;42.644;23.366;2023-05-20T03:44:44;94566.56;;;10.76;100.00
9721;BME280;4899;42.644;23.366;2023-05-20T03:47:09;94548.88;;;10.74;100.00
9721;BME280;4899;42.644;23.366;2023-05-20T03:49:35;94563.69;;;10.77;100.00
9721;BME280;4899;42.644;23.366;2023-05-20T03:52:00;94572.78;;;10.84;100.00
9721;BME280;4899;42.644;23.366;2023-05-20T03:54:27;94567.03;;;10.87;100.00
9721;BME280;4899;42.644;23.366;2023-05-20T03:56:54;94567.81;;;10.87;100.00
9721;BME280;4899;42.644;23.366;2023-05-20T03:59:20;94567.50;;;10.89;100.00
9721;BME280;4899;42.644;23.366;2023-05-20T04:01:46;94565.69;;;10.89;100.00
9721;BME280;4899;42.644;23.366;2023-05-20T04:04:12;94567.38;;;10.94;100.00
9721;BME280;4899;42.644;23.366;2023-05-20T04:06:37;94571.19;;;10.96;100.00
9721;BME280;4899;42.644;23.366;2023-05-20T04:09:02;94581.03;;;11.03;100.00
9721;BME280;4899;42.644;23.366;2023-05-20T04:11:28;94569.66;;;10.95;100.00
9721;BME280;4899;42.644;23.366;2023-05-20T04:13:53;94584.97;;;11.09;100.00
9721;BME280;4899;42.644;23.366;2023-05-20T04:16:19;94577.53;;;11.07;100.00
9721;BME280;4899;42.644;23.366;2023-05-20T04:18:45;94585.59;;;11.23;100.00
9721;BME280;4899;42.644;23.366;2023-05-20T04:21:12;94582.13;;;11.28;100.00
9721;BME280;4899;42.644;23.366;2023-05-20T04:23:37;94590.00;;;11.40;100.00
9721;BME280;4899;42.644;23.366;2023-05-20T04:26:04;94584.13;;;11.48;100.00
9721;BME280;4899;42.644;23.366;2023-05-20T04:28:29;94586.53;;;11.53;100.00
9721;BME280;4899;42.644;23.366;2023-05-20T04:31:02;94578.50;;;11.63;100.00
9721;BME280;4899;42.644;23.366;2023-05-20T04:33:28;94578.50;;;11.72;100.00
9721;BME280;4899;42.644;23.366;2023-05-20T04:35:55;94580.34;;;11.80;100.00
9721;BME280;4899;42.644;23.366;2023-05-20T04:38:25;94588.69;;;11.94;100.00
9721;BME280;4899;42.644;23.366;2023-05-20T04:40:59;94579.53;;;12.06;100.00
9721;BME280;4899;42.644;23.366;2023-05-20T04:43:26;94582.88;;;12.15;100.00
9721;BME280;4899;42.644;23.366;2023-05-20T04:45:54;94599.66;;;12.29;100.00
9721;BME280;4899;42.644;23.366;2023-05-20T04:48:20;94593.28;;;12.36;100.00
9721;BME280;4899;42.644;23.366;2023-05-20T04:50:46;94600.38;;;12.47;100.00
9721;BME280;4899;42.644;23.366;2023-05-20T04:53:13;94603.81;;;12.60;100.00
9721;BME280;4899;42.644;23.366;2023-05-20T04:55:39;94583.03;;;12.65;100.00
9721;BME280;4899;42.644;23.366;2023-05-20T04:58:04;94584.50;;;12.75;100.00
9721;BME280;4899;42.644;23.366;2023-05-20T05:00:32;94598.41;;;12.91;100.00
9721;BME280;4899;42.644;23.366;2023-05-20T05:02:57;94570.03;;;12.82;100.00
9721;BME280;4899;42.644;23.366;2023-05-20T05:05:23;94601.63;;;13.09;100.00
9721;BME280;4899;42.644;23.366;2023-05-20T05:07:48;94599.19;;;13.12;100.00
9721;BME280;4899;42.644;23.366;2023-05-20T05:10:14;94609.38;;;13.17;100.00
9721;BME280;4899;42.644;23.366;2023-05-20T05:12:40;94601.88;;;13.24;100.00
9721;BME280;4899;42.644;23.366;2023-05-20T05:15:05;94593.19;;;13.29;100.00
9721;BME280;4899;42.644;23.366;2023-05-20T05:17:31;94606.63;;;13.43;100.00
9721;BME280;4899;42.644;23.366;2023-05-20T05:19:56;94605.19;;;13.54;100.00
9721;BME280;4899;42.644;23.366;2023-05-20T05:22:22;94595.59;;;13.55;100.00
9721;BME280;4899;42.644;23.366;2023-05-20T05:24:47;94575.75;;;13.47;100.00
9721;BME280;4899;42.644;23.366;2023-05-20T05:27:13;94601.19;;;13.78;100.00
9721;BME280;4899;42.644;23.366;2023-05-20T05:29:38;94595.66;;;13.88;100.00
9721;BME280;4899;42.644;23.366;2023-05-20T05:32:04;94590.31;;;14.05;100.00
9721;BME280;4899;42.644;23.366;2023-05-20T05:34:29;94590.47;;;14.21;100.00
9721;BME280;4899;42.644;23.366;2023-05-20T05:36:55;94587.25;;;14.36;100.00
9721;BME280;4899;42.644;23.366;2023-05-20T05:39:20;94585.59;;;14.53;100.00
9721;BME280;4899;42.644;23.366;2023-05-20T05:41:46;94585.63;;;14.65;100.00
9721;BME280;4899;42.644;23.366;2023-05-20T05:44:11;94590.47;;;14.78;100.00
9721;BME280;4899;42.644;23.366;2023-05-20T05:46:37;94582.72;;;14.91;100.00
9721;BME280;4899;42.644;23.366;2023-05-20T05:49:02;94588.19;;;15.01;100.00
9721;BME280;4899;42.644;23.366;2023-05-20T05:51:27;94586.03;;;15.16;100.00
9721;BME280;4899;42.644;23.366;2023-05-20T05:53:53;94593.97;;;15.35;100.00
9721;BME280;4899;42.644;23.366;2023-05-20T05:56:19;94579.81;;;15.45;100.00
9721;BME280;4899;42.644;23.366;2023-05-20T05:58:44;94584.88;;;15.53;100.00
9721;BME280;4899;42.644;23.366;2023-05-20T06:01:09;94591.34;;;15.72;100.00
9721;BME280;4899;42.644;23.366;2023-05-20T06:03:35;94585.91;;;15.77;100.00
9721;BME280;4899;42.644;23.366;2023-05-20T06:06:01;94585.97;;;15.92;100.00
9721;BME280;4899;42.644;23.366;2023-05-20T06:08:26;94582.56;;;16.04;100.00
9721;BME280;4899;42.644;23.366;2023-05-20T06:10:52;94573.13;;;16.12;100.00
9721;BME280;4899;42.644;23.366;2023-05-20T06:13:17;94574.22;;;16.26;100.00
9721;BME280;4899;42.644;23.366;2023-05-20T06:15:43;94567.97;;;16.43;100.00
9721;BME280;4899;42.644;23.366;2023-05-20T06:18:11;94578.78;;;16.61;100.00
9721;BME280;4899;42.644;23.366;2023-05-20T06:20:36;94580.63;;;16.76;100.00
9721;BME280;4899;42.644;23.366;2023-05-20T06:23:02;94578.63;;;16.85;100.00
9721;BME280;4899;42.644;23.366;2023-05-20T06:25:27;94567.38;;;16.81;100.00
9721;BME280;4899;42.644;23.366;2023-05-20T06:27:53;94578.66;;;17.05;100.00
9721;BME280;4899;42.644;23.366;2023-05-20T06:30:18;94570.84;;;17.20;100.00
9721;BME280;4899;42.644;23.366;2023-05-20T06:32:44;94570.81;;;17.36;100.00
9721;BME280;4899;42.644;23.366;2023-05-20T06:35:10;94562.53;;;17.50;100.00
9721;BME280;4899;42.644;23.366;2023-05-20T06:37:36;94554.94;;;17.61;100.00
9721;BME280;4899;42.644;23.366;2023-05-20T06:40:02;94555.56;;;17.73;100.00
9721;BME280;4899;42.644;23.366;2023-05-20T06:42:27;94564.13;;;17.93;100.00
9721;BME280;4899;42.644;23.366;2023-05-20T06:44:53;94565.06;;;18.04;100.00
9721;BME280;4899;42.644;23.366;2023-05-20T06:47:18;94554.66;;;18.04;100.00
9721;BME280;4899;42.644;23.366;2023-05-20T06:49:44;94554.78;;;18.11;100.00
9721;BME280;4899;42.644;23.366;2023-05-20T06:52:09;94549.41;;;18.24;100.00
9721;BME280;4899;42.644;23.366;2023-05-20T06:54:37;94560.06;;;18.38;100.00
9721;BME280;4899;42.644;23.366;2023-05-20T06:57:08;94526.03;;;18.27;100.00
9721;BME280;4899;42.644;23.366;2023-05-20T06:59:34;94563.34;;;18.58;100.00
9721;BME280;4899;42.644;23.366;2023-05-20T07:02:00;94566.88;;;18.65;100.00
9721;BME280;4899;42.644;23.366;2023-05-20T07:04:25;94574.78;;;18.72;100.00
9721;BME280;4899;42.644;23.366;2023-05-20T07:06:51;94555.00;;;18.68;100.00
9721;BME280;4899;42.644;23.366;2023-05-20T07:09:16;94569.44;;;18.88;100.00
9721;BME280;4899;42.644;23.366;2023-05-20T07:11:42;94560.25;;;18.98;100.00
9721;BME280;4899;42.644;23.366;2023-05-20T07:14:07;94562.69;;;19.10;100.00
9721;BME280;4899;42.644;23.366;2023-05-20T07:16:33;94552.34;;;19.17;100.00
9721;BME280;4899;42.644;23.366;2023-05-20T07:18:59;94562.56;;;19.29;99.48
9721;BME280;4899;42.644;23.366;2023-05-20T07:21:24;94556.38;;;19.41;96.34
9721;BME280;4899;42.644;23.366;2023-05-20T07:23:50;94549.03;;;19.50;91.49
9721;BME280;4899;42.644;23.366;2023-05-20T07:26:16;94544.16;;;19.49;90.45
9721;BME280;4899;42.644;23.366;2023-05-20T07:28:42;94550.31;;;19.60;90.18
9721;BME280;4899;42.644;23.366;2023-05-20T07:31:09;94550.06;;;19.72;90.26
9721;BME280;4899;42.644;23.366;2023-05-20T07:33:35;94550.13;;;19.79;85.71
9721;BME280;4899;42.644;23.366;2023-05-20T07:36:01;94543.53;;;19.89;85.70
9721;BME280;4899;42.644;23.366;2023-05-20T07:38:26;94553.38;;;20.06;82.64
9721;BME280;4899;42.644;23.366;2023-05-20T07:40:51;94555.25;;;20.06;78.61
9721;BME280;4899;42.644;23.366;2023-05-20T07:43:17;94569.97;;;20.21;78.60
9721;BME280;4899;42.644;23.366;2023-05-20T07:45:42;94570.03;;;20.28;75.08
9721;BME280;4899;42.644;23.366;2023-05-20T07:48:08;94561.72;;;20.19;73.65
9721;BME280;4899;42.644;23.366;2023-05-20T07:50:35;94554.22;;;20.14;73.99
9721;BME280;4899;42.644;23.366;2023-05-20T07:53:00;94555.13;;;20.32;75.38
9721;BME280;4899;42.644;23.366;2023-05-20T07:55:26;94554.81;;;20.37;73.91
9721;BME280;4899;42.644;23.366;2023-05-20T07:57:51;94549.31;;;20.46;74.60
9721;BME280;4899;42.644;23.366;2023-05-20T08:00:17;94555.06;;;20.62;74.65
9721;BME280;4899;42.644;23.366;2023-05-20T08:02:43;94541.97;;;20.58;75.35
9721;BME280;4899;42.644;23.366;2023-05-20T08:05:08;94560.16;;;20.99;76.42
9721;BME280;4899;42.644;23.366;2023-05-20T08:07:33;94549.69;;;20.99;75.16
9721;BME280;4899;42.644;23.366;2023-05-20T08:09:59;94547.91;;;21.10;74.89
9721;BME280;4899;42.644;23.366;2023-05-20T08:12:25;94555.75;;;21.10;68.78
9721;BME280;4899;42.644;23.366;2023-05-20T08:14:50;94552.03;;;21.11;67.35
9721;BME280;4899;42.644;23.366;2023-05-20T08:17:16;94545.88;;;20.86;67.88
9721;BME280;4899;42.644;23.366;2023-05-20T08:19:41;94547.09;;;21.03;63.99
9721;BME280;4899;42.644;23.366;2023-05-20T08:22:07;94555.84;;;21.28;64.74
9721;BME280;4899;42.644;23.366;2023-05-20T08:24:33;94546.19;;;21.32;65.23
9721;BME280;4899;42.644;23.366;2023-05-20T08:26:58;94541.69;;;21.33;63.86
9721;BME280;4899;42.644;23.366;2023-05-20T08:29:23;94537.63;;;21.49;63.87
9721;BME280;4899;42.644;23.366;2023-05-20T08:31:49;94535.44;;;21.59;62.96
9721;BME280;4899;42.644;23.366;2023-05-20T08:34:14;94539.94;;;21.62;61.58
9721;BME280;4899;42.644;23.366;2023-05-20T08:36:40;94540.34;;;21.71;62.10
9721;BME280;4899;42.644;23.366;2023-05-20T08:39:06;94528.38;;;21.73;61.18
9721;BME280;4899;42.644;23.366;2023-05-20T08:41:31;94536.28;;;21.88;60.07
9721;BME280;4899;42.644;23.366;2023-05-20T08:43:59;94541.91;;;21.86;59.13
9721;BME280;4899;42.644;23.366;2023-05-20T08:46:26;94542.19;;;21.67;60.20
9721;BME280;4899;42.644;23.366;2023-05-20T08:48:51;94539.97;;;21.65;59.76
9721;BME280;4899;42.644;23.366;2023-05-20T08:51:19;94541.88;;;21.83;59.16
9721;BME280;4899;42.644;23.366;2023-05-20T08:53:46;94541.91;;;22.00;59.68
9721;BME280;4899;42.644;23.366;2023-05-20T08:56:11;94541.22;;;22.07;58.96
9721;BME280;4899;42.644;23.366;2023-05-20T08:58:37;94553.97;;;22.08;57.93
9721;BME280;4899;42.644;23.366;2023-05-20T09:01:03;94538.59;;;22.07;58.54
9721;BME280;4899;42.644;23.366;2023-05-20T09:03:31;94534.88;;;22.22;58.58
9721;BME280;4899;42.644;23.366;2023-05-20T09:06:06;94539.03;;;22.34;55.02
9721;BME280;4899;42.644;23.366;2023-05-20T09:08:32;94530.03;;;22.49;56.62
9721;BME280;4899;42.644;23.366;2023-05-20T09:11:17;94533.03;;;22.65;53.23
9721;BME280;4899;42.644;23.366;2023-05-20T09:13:43;94521.00;;;22.79;55.90
9721;BME280;4899;42.644;23.366;2023-05-20T09:16:09;94519.56;;;22.81;55.93
9721;BME280;4899;42.644;23.366;2023-05-20T09:18:38;94525.53;;;22.89;55.23
9721;BME280;4899;42.644;23.366;2023-05-20T09:21:04;94524.03;;;22.91;55.56
9721;BME280;4899;42.644;23.366;2023-05-20T09:23:35;94516.53;;;22.90;54.67
9721;BME280;4899;42.644;23.366;2023-05-20T09:26:02;94506.00;;;22.79;54.57
9721;BME280;4899;42.644;23.366;2023-05-20T09:28:28;94512.06;;;22.83;53.91
9721;BME280;4899;42.644;23.366;2023-05-20T09:30:59;94518.03;;;22.73;52.93
9721;BME280;4899;42.644;23.366;2023-05-20T09:33:29;94518.44;;;22.82;52.75
9721;BME280;4899;42.644;23.366;2023-05-20T09:36:22;94514.28;;;22.67;51.02
9721;BME280;4899;42.644;23.366;2023-05-20T09:38:51;94506.06;;;22.65;53.72
9721;BME280;4899;42.644;23.366;2023-05-20T09:41:19;94485.06;;;22.68;54.53
9721;BME280;4899;42.644;23.366;2023-05-20T09:43:49;94506.75;;;23.01;53.91
9721;BME280;4899;42.644;23.366;2023-05-20T09:46:17;94493.25;;;23.10;53.98
9721;BME280;4899;42.644;23.366;2023-05-20T09:48:43;94495.50;;;23.00;54.55
9721;BME280;4899;42.644;23.366;2023-05-20T09:51:09;94479.06;;;22.89;53.99
9721;BME280;4899;42.644;23.366;2023-05-20T09:53:36;94499.31;;;22.85;54.49
9721;BME280;4899;42.644;23.366;2023-05-20T09:56:02;94494.41;;;22.94;54.17
9721;BME280;4899;42.644;23.366;2023-05-20T09:58:28;94493.53;;;23.29;53.71
9721;BME280;4899;42.644;23.366;2023-05-20T10:00:54;94486.03;;;23.35;53.00
9721;BME280;4899;42.644;23.366;2023-05-20T10:03:23;94486.03;;;23.39;52.80
9721;BME280;4899;42.644;23.366;2023-05-20T10:08:56;94482.16;;;23.68;52.69
9721;BME280;4899;42.644;23.366;2023-05-20T10:16:57;94469.78;;;23.69;50.09
9721;BME280;4899;42.644;23.366;2023-05-20T10:19:31;94458.00;;;23.91;49.72
9721;BME280;4899;42.644;23.366;2023-05-20T10:22:00;94464.59;;;24.13;50.11
9721;BME280;4899;42.644;23.366;2023-05-20T10:24:31;94461.50;;;24.33;48.69
9721;BME280;4899;42.644;23.366;2023-05-20T10:26:57;94455.00;;;24.44;48.96
9721;BME280;4899;42.644;23.366;2023-05-20T10:29:24;94456.41;;;24.56;48.96
9721;BME280;4899;42.644;23.366;2023-05-20T10:31:51;94450.41;;;24.52;48.17
9721;BME280;4899;42.644;23.366;2023-05-20T10:34:18;94452.63;;;24.57;48.02
9721;BME280;4899;42.644;23.366;2023-05-20T10:36:46;94454.84;;;24.62;47.97
9721;BME280;4899;42.644;23.366;2023-05-20T10:39:29;94454.19;;;24.89;46.12
9721;BME280;4899;42.644;23.366;2023-05-20T10:42:08;94437.06;;;25.11;43.67
9721;BME280;4899;42.644;23.366;2023-05-20T10:44:44;94428.97;;;25.29;43.77
9721;BME280;4899;42.644;23.366;2023-05-20T10:47:10;94439.47;;;24.95;45.59
9721;BME280;4899;42.644;23.366;2023-05-20T10:49:42;94415.66;;;24.34;45.16
9721;BME280;4899;42.644;23.366;2023-05-20T10:52:09;94433.78;;;24.62;46.34
9721;BME280;4899;42.644;23.366;2023-05-20T10:54:56;94441.56;;;25.98;42.88
9721;BME280;4899;42.644;23.366;2023-05-20T10:57:22;94430.88;;;26.76;43.23
9721;BME280;4899;42.644;23.366;2023-05-20T10:59:48;94421.75;;;27.40;41.53
9721;BME280;4899;42.644;23.366;2023-05-20T11:02:15;94432.88;;;28.65;41.39
9721;BME280;4899;42.644;23.366;2023-05-20T11:04:45;94417.13;;;29.70;39.42
9721;BME280;4899;42.644;23.366;2023-05-20T11:07:12;94421.38;;;29.67;40.96
9721;BME280;4899;42.644;23.366;2023-05-20T11:09:38;94422.53;;;28.99;40.19
9721;BME280;4899;42.644;23.366;2023-05-20T11:12:03;94422.16;;;28.23;41.01
9721;BME280;4899;42.644;23.366;2023-05-20T11:14:29;94427.06;;;29.40;38.63
9721;BME280;4899;42.644;23.366;2023-05-20T11:16:59;94421.41;;;30.40;37.82
9721;BME280;4899;42.644;23.366;2023-05-20T11:19:26;94403.75;;;31.03;37.50
9721;BME280;4899;42.644;23.366;2023-05-20T11:21:52;94413.78;;;30.77;35.35
9721;BME280;4899;42.644;23.366;2023-05-20T11:24:27;94402.03;;;29.41;35.74
9721;BME280;4899;42.644;23.366;2023-05-20T11:26:54;94421.03;;;28.86;38.63
9721;BME280;4899;42.644;23.366;2023-05-20T11:29:20;94412.19;;;28.14;39.29
9721;BME280;4899;42.644;23.366;2023-05-20T11:31:50;94387.94;;;27.67;39.85
9721;BME280;4899;42.644;23.366;2023-05-20T11:34:19;94405.19;;;26.80;40.05
9721;BME280;4899;42.644;23.366;2023-05-20T11:36:45;94398.81;;;26.57;40.72
9721;BME280;4899;42.644;23.366;2023-05-20T11:39:11;94380.97;;;26.42;41.57
9721;BME280;4899;42.644;23.366;2023-05-20T11:41:37;94369.00;;;26.37;41.51
9721;BME280;4899;42.644;23.366;2023-05-20T11:44:03;94398.13;;;26.06;41.82
9721;BME280;4899;42.644;23.366;2023-05-20T11:46:29;94377.25;;;25.92;41.34
9721;BME280;4899;42.644;23.366;2023-05-20T11:48:56;94387.69;;;25.45;41.36
9721;BME280;4899;42.644;23.366;2023-05-20T11:51:25;94384.56;;;24.93;42.60
9721;BME280;4899;42.644;23.366;2023-05-20T11:53:51;94387.84;;;24.70;43.50
9721;BME280;4899;42.644;23.366;2023-05-20T11:56:16;94393.47;;;24.35;43.96
9721;BME280;4899;42.644;23.366;2023-05-20T11:58:43;94382.03;;;24.07;44.50
9721;BME280;4899;42.644;23.366;2023-05-20T12:01:09;94369.09;;;23.79;45.30
9721;BME280;4899;42.644;23.366;2023-05-20T12:03:35;94372.97;;;23.67;45.93
9721;BME280;4899;42.644;23.366;2023-05-20T12:06:01;94372.31;;;23.45;46.16
9721;BME280;4899;42.644;23.366;2023-05-20T12:08:27;94371.69;;;23.27;46.20
9721;BME280;4899;42.644;23.366;2023-05-20T12:10:53;94368.38;;;23.12;46.59
9721;BME280;4899;42.644;23.366;2023-05-20T12:13:18;94360.94;;;23.00;47.14
9721;BME280;4899;42.644;23.366;2023-05-20T12:15:44;94359.16;;;22.72;47.93
9721;BME280;4899;42.644;23.366;2023-05-20T12:18:09;94376.06;;;22.50;48.27
9721;BME280;4899;42.644;23.366;2023-05-20T12:20:35;94376.09;;;22.28;48.45
9721;BME280;4899;42.644;23.366;2023-05-20T12:23:01;94392.94;;;22.02;49.26
9721;BME280;4899;42.644;23.366;2023-05-20T12:25:27;94405.66;;;21.68;50.04
9721;BME280;4899;42.644;23.366;2023-05-20T12:27:54;94387.63;;;21.28;50.64
9721;BME280;4899;42.644;23.366;2023-05-20T12:30:21;94393.47;;;20.89;51.04
9721;BME280;4899;42.644;23.366;2023-05-20T12:32:48;94398.88;;;20.55;51.99
9721;BME280;4899;42.644;23.366;2023-05-20T12:35:15;94409.09;;;20.20;53.08
9721;BME280;4899;42.644;23.366;2023-05-20T12:37:41;94417.56;;;20.06;54.23
9721;BME280;4899;42.644;23.366;2023-05-20T12:40:08;94420.13;;;19.95;54.69
9721;BME280;4899;42.644;23.366;2023-05-20T12:45:02;94410.59;;;19.73;58.22
9721;BME280;4899;42.644;23.366;2023-05-20T12:47:29;94401.53;;;19.60;60.41
9721;BME280;4899;42.644;23.366;2023-05-20T12:49:54;94406.06;;;19.66;61.23
9721;BME280;4899;42.644;23.366;2023-05-20T12:52:20;94401.28;;;19.76;60.81
9721;BME280;4899;42.644;23.366;2023-05-20T12:54:45;94401.50;;;21.32;56.93
9721;BME280;4899;42.644;23.366;2023-05-20T12:57:11;94405.78;;;23.34;53.70
9721;BME280;4899;42.644;23.366;2023-05-20T12:59:36;94398.53;;;24.56;51.68
9721;BME280;4899;42.644;23.366;2023-05-20T13:02:02;94404.50;;;25.28;50.39
9721;BME280;4899;42.644;23.366;2023-05-20T13:04:27;94401.22;;;26.25;48.50
9721;BME280;4899;42.644;23.366;2023-05-20T13:06:53;94383.16;;;27.95;46.05
9721;BME280;4899;42.644;23.366;2023-05-20T13:09:18;94363.91;;;29.64;43.37
9721;BME280;4899;42.644;23.366;2023-05-20T13:11:44;94371.13;;;31.02;41.94